sensor_id;sensor_type;location;lat;lon;timestamp;P1;durP1;ratioP1;P2;durP2;ratioP2
6269;SDS011;3168;51.684;6.954;2023-09-12T00:02:02;27.93;;;14.90;;
6269;SDS011;3168;51.684;6.954;2023-09-12T00:04:28;20.23;;;13.47;;
6269;SDS011;3168;51.684;6.954;2023-09-12T00:06:54;24.60;;;13.40;;
6269;SDS011;3168;51.684;6.954;2023-09-12T00:09:20;21.43;;;14.50;;
6269;SDS011;3168;51.684;6.954;2023-09-12T00:11:47;21.80;;;12.37;;
6269;SDS011;3168;51.684;6.954;2023-09-12T00:14:14;19.67;;;13.53;;
6269;SDS011;3168;51.684;6.954;2023-09-12T00:16:40;18.90;;;13.37;;
6269;SDS011;3168;51.684;6.954;2023-09-12T00:19:06;23.40;;;13.97;;
6269;SDS011;3168;51.684;6.954;2023-09-12T00:21:32;21.47;;;14.70;;
6269;SDS011;3168;51.684;6.954;2023-09-12T00:23:58;17.00;;;14.63;;
6269;SDS011;3168;51.684;6.954;2023-09-12T00:26:24;17.93;;;13.00;;
6269;SDS011;3168;51.684;6.954;2023-09-12T00:28:50;19.30;;;14.20;;
6269;SDS011;3168;51.684;6.954;2023-09-12T00:31:16;24.80;;;14.50;;
6269;SDS011;3168;51.684;6.954;2023-09-12T00:33:42;20.97;;;15.13;;
6269;SDS011;3168;51.684;6.954;2023-09-12T00:36:08;24.80;;;14.20;;
6269;SDS011;3168;51.684;6.954;2023-09-12T00:38:34;17.90;;;13.00;;
6269;SDS011;3168;51.684;6.954;2023-09-12T00:41:00;27.83;;;16.20;;
6269;SDS011;3168;51.684;6.954;2023-09-12T00:43:26;25.47;;;14.63;;
6269;SDS011;3168;51.684;6.954;2023-09-12T00:45:52;35.53;;;17.13;;
6269;SDS011;3168;51.684;6.954;2023-09-12T00:48:18;29.30;;;17.63;;
6269;SDS011;3168;51.684;6.954;2023-09-12T00:50:44;27.33;;;18.23;;
6269;SDS011;3168;51.684;6.954;2023-09-12T00:53:10;28.23;;;17.60;;
6269;SDS011;3168;51.684;6.954;2023-09-12T00:55:38;32.33;;;17.90;;
6269;SDS011;3168;51.684;6.954;2023-09-12T00:58:03;32.87;;;16.83;;
6269;SDS011;3168;51.684;6.954;2023-09-12T01:00:29;39.77;;;15.97;;
6269;SDS011;3168;51.684;6.954;2023-09-12T01:02:55;34.93;;;16.30;;
6269;SDS011;3168;51.684;6.954;2023-09-12T01:05:22;37.30;;;18.70;;
6269;SDS011;3168;51.684;6.954;2023-09-12T01:07:48;42.23;;;21.03;;
6269;SDS011;3168;51.684;6.954;2023-09-12T01:10:14;33.40;;;20.97;;
6269;SDS011;3168;51.684;6.954;2023-09-12T01:12:41;60.90;;;21.77;;
6269;SDS011;3168;51.684;6.954;2023-09-12T01:15:07;49.37;;;22.50;;
6269;SDS011;3168;51.684;6.954;2023-09-12T01:17:35;38.10;;;21.60;;
6269;SDS011;3168;51.684;6.954;2023-09-12T01:20:01;39.80;;;23.50;;
6269;SDS011;3168;51.684;6.954;2023-09-12T01:23:08;28.53;;;20.37;;
6269;SDS011;3168;51.684;6.954;2023-09-12T01:27:58;49.90;;;21.40;;
6269;SDS011;3168;51.684;6.954;2023-09-12T01:30:23;34.97;;;18.73;;
6269;SDS011;3168;51.684;6.954;2023-09-12T01:32:50;42.27;;;18.73;;
6269;SDS011;3168;51.684;6.954;2023-09-12T01:35:16;37.40;;;20.90;;
6269;SDS011;3168;51.684;6.954;2023-09-12T01:37:42;37.90;;;18.53;;
6269;SDS011;3168;51.684;6.954;2023-09-12T01:40:08;33.70;;;17.40;;
6269;SDS011;3168;51.684;6.954;2023-09-12T01:42:36;37.10;;;19.23;;
6269;SDS011;3168;51.684;6.954;2023-09-12T01:45:02;31.93;;;19.20;;
6269;SDS011;3168;51.684;6.954;2023-09-12T01:47:29;36.50;;;19.53;;
6269;SDS011;3168;51.684;6.954;2023-09-12T01:49:56;35.43;;;18.40;;
6269;SDS011;3168;51.684;6.954;2023-09-12T01:52:20;43.90;;;19.53;;
6269;SDS011;3168;51.684;6.954;2023-09-12T01:54:46;30.83;;;17.73;;
6269;SDS011;3168;51.684;6.954;2023-09-12T01:57:13;37.83;;;19.23;;
6269;SDS011;3168;51.684;6.954;2023-09-12T01:59:38;31.13;;;18.67;;
6269;SDS011;3168;51.684;6.954;2023-09-12T02:02:05;38.37;;;20.80;;
6269;SDS011;3168;51.684;6.954;2023-09-12T02:04:31;39.97;;;22.33;;
6269;SDS011;3168;51.684;6.954;2023-09-12T02:06:57;0.50;;;0.50;;
6269;SDS011;3168;51.684;6.954;2023-09-12T02:09:24;0.40;;;0.40;;
6269;SDS011;3168;51.684;6.954;2023-09-12T02:11:50;0.40;;;0.40;;
6269;SDS011;3168;51.684;6.954;2023-09-12T02:14:17;0.50;;;0.50;;
6269;SDS011;3168;51.684;6.954;2023-09-12T02:16:44;0.40;;;0.40;;
6269;SDS011;3168;51.684;6.954;2023-09-12T02:19:10;0.50;;;0.50;;
6269;SDS011;3168;51.684;6.954;2023-09-12T02:21:36;0.97;;;0.97;;
6269;SDS011;3168;51.684;6.954;2023-09-12T02:24:02;0.50;;;0.50;;
6269;SDS011;3168;51.684;6.954;2023-09-12T02:26:28;0.50;;;0.50;;
6269;SDS011;3168;51.684;6.954;2023-09-12T02:28:54;1.00;;;1.00;;
6269;SDS011;3168;51.684;6.954;2023-09-12T02:31:20;0.50;;;0.50;;
6269;SDS011;3168;51.684;6.954;2023-09-12T02:33:46;0.87;;;0.87;;
6269;SDS011;3168;51.684;6.954;2023-09-12T02:36:12;2.27;;;2.17;;
6269;SDS011;3168;51.684;6.954;2023-09-12T02:38:38;0.40;;;0.40;;
6269;SDS011;3168;51.684;6.954;2023-09-12T02:41:05;0.50;;;0.50;;
6269;SDS011;3168;51.684;6.954;2023-09-12T02:43:31;0.70;;;0.70;;
6269;SDS011;3168;51.684;6.954;2023-09-12T02:45:57;1.03;;;1.03;;
6269;SDS011;3168;51.684;6.954;2023-09-12T02:48:23;0.40;;;0.40;;
6269;SDS011;3168;51.684;6.954;2023-09-12T02:50:49;0.60;;;0.60;;
6269;SDS011;3168;51.684;6.954;2023-09-12T02:53:15;0.90;;;0.90;;
6269;SDS011;3168;51.684;6.954;2023-09-12T02:55:41;0.50;;;0.50;;
6269;SDS011;3168;51.684;6.954;2023-09-12T02:58:07;0.50;;;0.50;;
6269;SDS011;3168;51.684;6.954;2023-09-12T03:00:37;0.50;;;0.50;;
6269;SDS011;3168;51.684;6.954;2023-09-12T03:02:59;0.50;;;0.50;;
6269;SDS011;3168;51.684;6.954;2023-09-12T03:05:25;0.40;;;0.40;;
6269;SDS011;3168;51.684;6.954;2023-09-12T03:07:51;0.50;;;0.50;;
6269;SDS011;3168;51.684;6.954;2023-09-12T03:10:17;0.47;;;0.47;;
6269;SDS011;3168;51.684;6.954;2023-09-12T03:12:43;0.50;;;0.50;;
6269;SDS011;3168;51.684;6.954;2023-09-12T03:15:09;0.60;;;0.60;;
6269;SDS011;3168;51.684;6.954;2023-09-12T03:17:36;0.80;;;0.80;;
6269;SDS011;3168;51.684;6.954;2023-09-12T03:20:02;0.50;;;0.50;;
6269;SDS011;3168;51.684;6.954;2023-09-12T03:22:28;0.40;;;0.40;;
6269;SDS011;3168;51.684;6.954;2023-09-12T03:24:54;0.50;;;0.50;;
6269;SDS011;3168;51.684;6.954;2023-09-12T03:27:20;0.60;;;0.60;;
6269;SDS011;3168;51.684;6.954;2023-09-12T03:29:47;0.47;;;0.47;;
6269;SDS011;3168;51.684;6.954;2023-09-12T03:32:12;2.07;;;1.97;;
6269;SDS011;3168;51.684;6.954;2023-09-12T03:34:38;0.40;;;0.40;;
6269;SDS011;3168;51.684;6.954;2023-09-12T03:37:04;0.40;;;0.40;;
6269;SDS011;3168;51.684;6.954;2023-09-12T03:39:30;0.80;;;0.80;;
6269;SDS011;3168;51.684;6.954;2023-09-12T03:41:56;0.40;;;0.40;;
6269;SDS011;3168;51.684;6.954;2023-09-12T03:44:22;0.47;;;0.47;;
6269;SDS011;3168;51.684;6.954;2023-09-12T03:46:48;0.77;;;0.77;;
6269;SDS011;3168;51.684;6.954;2023-09-12T03:49:14;0.60;;;0.60;;
6269;SDS011;3168;51.684;6.954;2023-09-12T03:51:40;0.40;;;0.40;;
6269;SDS011;3168;51.684;6.954;2023-09-12T03:54:06;0.50;;;0.50;;
6269;SDS011;3168;51.684;6.954;2023-09-12T03:56:32;3.08;;;2.87;;
6269;SDS011;3168;51.684;6.954;2023-09-12T03:58:58;0.77;;;0.77;;
6269;SDS011;3168;51.684;6.954;2023-09-12T04:01:24;1.33;;;1.33;;
6269;SDS011;3168;51.684;6.954;2023-09-12T04:03:50;0.40;;;0.40;;
6269;SDS011;3168;51.684;6.954;2023-09-12T04:06:16;0.40;;;0.40;;
6269;SDS011;3168;51.684;6.954;2023-09-12T04:08:42;0.40;;;0.40;;
6269;SDS011;3168;51.684;6.954;2023-09-12T04:11:08;0.40;;;0.40;;
6269;SDS011;3168;51.684;6.954;2023-09-12T04:13:34;0.50;;;0.50;;
6269;SDS011;3168;51.684;6.954;2023-09-12T04:16:00;0.50;;;0.50;;
6269;SDS011;3168;51.684;6.954;2023-09-12T04:18:26;0.97;;;0.97;;
6269;SDS011;3168;51.684;6.954;2023-09-12T04:20:51;0.40;;;0.40;;
6269;SDS011;3168;51.684;6.954;2023-09-12T04:23:18;0.40;;;0.40;;
6269;SDS011;3168;51.684;6.954;2023-09-12T04:25:45;0.40;;;0.40;;
6269;SDS011;3168;51.684;6.954;2023-09-12T04:28:10;0.40;;;0.40;;
6269;SDS011;3168;51.684;6.954;2023-09-12T04:30:36;0.40;;;0.40;;
6269;SDS011;3168;51.684;6.954;2023-09-12T04:33:02;0.40;;;0.40;;
6269;SDS011;3168;51.684;6.954;2023-09-12T04:35:28;0.40;;;0.40;;
6269;SDS011;3168;51.684;6.954;2023-09-12T04:37:54;0.43;;;0.43;;
6269;SDS011;3168;51.684;6.954;2023-09-12T04:40:20;0.40;;;0.40;;
6269;SDS011;3168;51.684;6.954;2023-09-12T04:42:46;0.70;;;0.70;;
6269;SDS011;3168;51.684;6.954;2023-09-12T04:45:12;0.40;;;0.40;;
6269;SDS011;3168;51.684;6.954;2023-09-12T04:47:38;0.80;;;0.80;;
6269;SDS011;3168;51.684;6.954;2023-09-12T04:50:05;0.83;;;0.83;;
6269;SDS011;3168;51.684;6.954;2023-09-12T04:52:32;0.40;;;0.40;;
6269;SDS011;3168;51.684;6.954;2023-09-12T04:54:58;0.50;;;0.50;;
6269;SDS011;3168;51.684;6.954;2023-09-12T04:57:24;0.50;;;0.50;;
6269;SDS011;3168;51.684;6.954;2023-09-12T04:59:51;0.93;;;0.93;;
6269;SDS011;3168;51.684;6.954;2023-09-12T05:02:16;0.50;;;0.50;;
6269;SDS011;3168;51.684;6.954;2023-09-12T05:04:42;0.40;;;0.40;;
6269;SDS011;3168;51.684;6.954;2023-09-12T05:07:08;0.50;;;0.50;;
6269;SDS011;3168;51.684;6.954;2023-09-12T05:09:34;1.20;;;1.10;;
6269;SDS011;3168;51.684;6.954;2023-09-12T05:12:00;0.43;;;0.43;;
6269;SDS011;3168;51.684;6.954;2023-09-12T05:14:26;0.50;;;0.50;;
6269;SDS011;3168;51.684;6.954;2023-09-12T05:16:52;0.50;;;0.50;;
6269;SDS011;3168;51.684;6.954;2023-09-12T05:19:18;0.50;;;0.50;;
6269;SDS011;3168;51.684;6.954;2023-09-12T05:21:44;0.40;;;0.40;;
6269;SDS011;3168;51.684;6.954;2023-09-12T05:24:10;0.50;;;0.50;;
6269;SDS011;3168;51.684;6.954;2023-09-12T05:26:36;0.40;;;0.40;;
6269;SDS011;3168;51.684;6.954;2023-09-12T05:29:09;0.50;;;0.50;;
6269;SDS011;3168;51.684;6.954;2023-09-12T05:31:35;0.50;;;0.50;;
6269;SDS011;3168;51.684;6.954;2023-09-12T05:34:02;0.90;;;0.90;;
6269;SDS011;3168;51.684;6.954;2023-09-12T05:36:27;0.97;;;0.97;;
6269;SDS011;3168;51.684;6.954;2023-09-12T05:38:54;0.40;;;0.40;;
6269;SDS011;3168;51.684;6.954;2023-09-12T05:41:22;2.37;;;2.27;;
6269;SDS011;3168;51.684;6.954;2023-09-12T05:43:48;0.50;;;0.50;;
6269;SDS011;3168;51.684;6.954;2023-09-12T05:46:14;0.40;;;0.40;;
6269;SDS011;3168;51.684;6.954;2023-09-12T05:48:40;0.43;;;0.43;;
6269;SDS011;3168;51.684;6.954;2023-09-12T05:51:06;0.40;;;0.40;;
6269;SDS011;3168;51.684;6.954;2023-09-12T05:53:32;0.50;;;0.50;;
6269;SDS011;3168;51.684;6.954;2023-09-12T05:55:58;0.40;;;0.40;;
6269;SDS011;3168;51.684;6.954;2023-09-12T05:58:24;0.50;;;0.50;;
6269;SDS011;3168;51.684;6.954;2023-09-12T06:00:51;0.40;;;0.40;;
6269;SDS011;3168;51.684;6.954;2023-09-12T06:03:17;0.60;;;0.60;;
6269;SDS011;3168;51.684;6.954;2023-09-12T06:05:43;0.40;;;0.40;;
6269;SDS011;3168;51.684;6.954;2023-09-12T06:08:09;0.63;;;0.63;;
6269;SDS011;3168;51.684;6.954;2023-09-12T06:10:35;0.60;;;0.60;;
6269;SDS011;3168;51.684;6.954;2023-09-12T06:13:01;0.40;;;0.40;;
6269;SDS011;3168;51.684;6.954;2023-09-12T06:15:28;0.40;;;0.40;;
6269;SDS011;3168;51.684;6.954;2023-09-12T06:17:54;1.17;;;1.13;;
6269;SDS011;3168;51.684;6.954;2023-09-12T06:20:20;0.60;;;0.60;;
6269;SDS011;3168;51.684;6.954;2023-09-12T06:22:46;1.60;;;1.37;;
6269;SDS011;3168;51.684;6.954;2023-09-12T06:25:13;1.03;;;1.03;;
6269;SDS011;3168;51.684;6.954;2023-09-12T06:27:39;0.40;;;0.40;;
6269;SDS011;3168;51.684;6.954;2023-09-12T06:30:05;0.40;;;0.40;;
6269;SDS011;3168;51.684;6.954;2023-09-12T06:32:32;0.43;;;0.43;;
6269;SDS011;3168;51.684;6.954;2023-09-12T06:34:58;0.40;;;0.40;;
6269;SDS011;3168;51.684;6.954;2023-09-12T06:37:24;0.40;;;0.40;;
6269;SDS011;3168;51.684;6.954;2023-09-12T06:39:50;1.00;;;1.00;;
6269;SDS011;3168;51.684;6.954;2023-09-12T06:42:17;0.40;;;0.40;;
6269;SDS011;3168;51.684;6.954;2023-09-12T06:44:43;0.50;;;0.50;;
6269;SDS011;3168;51.684;6.954;2023-09-12T06:47:09;0.40;;;0.40;;
6269;SDS011;3168;51.684;6.954;2023-09-12T06:49:35;0.50;;;0.50;;
6269;SDS011;3168;51.684;6.954;2023-09-12T06:52:01;0.93;;;0.93;;
6269;SDS011;3168;51.684;6.954;2023-09-12T06:54:27;0.40;;;0.40;;
6269;SDS011;3168;51.684;6.954;2023-09-12T06:56:53;0.83;;;0.83;;
6269;SDS011;3168;51.684;6.954;2023-09-12T06:59:19;0.40;;;0.40;;
6269;SDS011;3168;51.684;6.954;2023-09-12T07:01:45;0.73;;;0.73;;
6269;SDS011;3168;51.684;6.954;2023-09-12T07:04:12;1.27;;;1.27;;
6269;SDS011;3168;51.684;6.954;2023-09-12T07:06:38;0.50;;;0.50;;
6269;SDS011;3168;51.684;6.954;2023-09-12T07:09:04;1.80;;;1.80;;
6269;SDS011;3168;51.684;6.954;2023-09-12T07:11:30;0.40;;;0.40;;
6269;SDS011;3168;51.684;6.954;2023-09-12T07:13:57;1.70;;;1.70;;
6269;SDS011;3168;51.684;6.954;2023-09-12T07:16:23;0.87;;;0.87;;
6269;SDS011;3168;51.684;6.954;2023-09-12T07:18:49;0.97;;;0.97;;
6269;SDS011;3168;51.684;6.954;2023-09-12T07:21:15;0.43;;;0.43;;
6269;SDS011;3168;51.684;6.954;2023-09-12T07:23:41;0.40;;;0.40;;
6269;SDS011;3168;51.684;6.954;2023-09-12T07:26:11;1.13;;;1.03;;
6269;SDS011;3168;51.684;6.954;2023-09-12T07:28:33;0.50;;;0.50;;
6269;SDS011;3168;51.684;6.954;2023-09-12T07:30:59;0.97;;;0.97;;
6269;SDS011;3168;51.684;6.954;2023-09-12T07:33:27;0.60;;;0.60;;
6269;SDS011;3168;51.684;6.954;2023-09-12T07:35:53;0.47;;;0.47;;
6269;SDS011;3168;51.684;6.954;2023-09-12T07:38:20;0.47;;;0.47;;
6269;SDS011;3168;51.684;6.954;2023-09-12T07:40:46;0.50;;;0.50;;
6269;SDS011;3168;51.684;6.954;2023-09-12T07:43:12;0.40;;;0.40;;
6269;SDS011;3168;51.684;6.954;2023-09-12T07:45:39;0.50;;;0.50;;
6269;SDS011;3168;51.684;6.954;2023-09-12T07:48:05;0.70;;;0.70;;
6269;SDS011;3168;51.684;6.954;2023-09-12T07:50:32;0.40;;;0.40;;
6269;SDS011;3168;51.684;6.954;2023-09-12T07:52:58;0.60;;;0.60;;
6269;SDS011;3168;51.684;6.954;2023-09-12T07:55:24;0.40;;;0.40;;
6269;SDS011;3168;51.684;6.954;2023-09-12T07:57:50;0.40;;;0.40;;
6269;SDS011;3168;51.684;6.954;2023-09-12T08:00:16;0.40;;;0.40;;
6269;SDS011;3168;51.684;6.954;2023-09-12T08:02:42;1.00;;;1.00;;
6269;SDS011;3168;51.684;6.954;2023-09-12T08:05:15;0.40;;;0.40;;
6269;SDS011;3168;51.684;6.954;2023-09-12T08:07:42;0.40;;;0.40;;
6269;SDS011;3168;51.684;6.954;2023-09-12T08:10:08;0.50;;;0.50;;
6269;SDS011;3168;51.684;6.954;2023-09-12T08:12:35;0.57;;;0.57;;
6269;SDS011;3168;51.684;6.954;2023-09-12T08:15:01;0.50;;;0.50;;
6269;SDS011;3168;51.684;6.954;2023-09-12T08:17:27;0.40;;;0.40;;
6269;SDS011;3168;51.684;6.954;2023-09-12T08:19:53;0.40;;;0.40;;
6269;SDS011;3168;51.684;6.954;2023-09-12T08:22:19;0.47;;;0.47;;
6269;SDS011;3168;51.684;6.954;2023-09-12T08:24:45;0.40;;;0.40;;
6269;SDS011;3168;51.684;6.954;2023-09-12T08:27:11;0.40;;;0.40;;
6269;SDS011;3168;51.684;6.954;2023-09-12T08:29:37;0.43;;;0.43;;
6269;SDS011;3168;51.684;6.954;2023-09-12T08:32:04;0.40;;;0.40;;
6269;SDS011;3168;51.684;6.954;2023-09-12T08:34:30;0.50;;;0.50;;
6269;SDS011;3168;51.684;6.954;2023-09-12T08:36:56;0.40;;;0.40;;
6269;SDS011;3168;51.684;6.954;2023-09-12T08:39:23;0.40;;;0.40;;
6269;SDS011;3168;51.684;6.954;2023-09-12T08:41:49;0.40;;;0.40;;
6269;SDS011;3168;51.684;6.954;2023-09-12T08:44:15;1.53;;;1.53;;
6269;SDS011;3168;51.684;6.954;2023-09-12T08:46:41;1.13;;;1.13;;
6269;SDS011;3168;51.684;6.954;2023-09-12T08:49:07;0.50;;;0.50;;
6269;SDS011;3168;51.684;6.954;2023-09-12T08:51:33;0.40;;;0.40;;
6269;SDS011;3168;51.684;6.954;2023-09-12T08:53:59;1.10;;;1.10;;
6269;SDS011;3168;51.684;6.954;2023-09-12T08:56:26;0.83;;;0.83;;
6269;SDS011;3168;51.684;6.954;2023-09-12T08:58:51;0.50;;;0.50;;
6269;SDS011;3168;51.684;6.954;2023-09-12T09:01:18;1.63;;;1.53;;
6269;SDS011;3168;51.684;6.954;2023-09-12T09:03:44;0.50;;;0.50;;
6269;SDS011;3168;51.684;6.954;2023-09-12T09:06:10;0.50;;;0.50;;
6269;SDS011;3168;51.684;6.954;2023-09-12T09:08:35;0.50;;;0.50;;
6269;SDS011;3168;51.684;6.954;2023-09-12T09:11:01;2.27;;;1.03;;
6269;SDS011;3168;51.684;6.954;2023-09-12T09:13:27;0.70;;;0.70;;
6269;SDS011;3168;51.684;6.954;2023-09-12T09:16:27;0.67;;;0.67;;
6269;SDS011;3168;51.684;6.954;2023-09-12T09:21:22;0.40;;;0.40;;
6269;SDS011;3168;51.684;6.954;2023-09-12T09:23:49;0.60;;;0.60;;
6269;SDS011;3168;51.684;6.954;2023-09-12T09:26:15;0.40;;;0.40;;
6269;SDS011;3168;51.684;6.954;2023-09-12T09:28:41;0.40;;;0.40;;
6269;SDS011;3168;51.684;6.954;2023-09-12T09:31:10;0.40;;;0.40;;
6269;SDS011;3168;51.684;6.954;2023-09-12T09:33:36;0.40;;;0.40;;
6269;SDS011;3168;51.684;6.954;2023-09-12T09:36:03;0.40;;;0.40;;
6269;SDS011;3168;51.684;6.954;2023-09-12T09:38:30;0.60;;;0.60;;
6269;SDS011;3168;51.684;6.954;2023-09-12T09:40:56;0.40;;;0.40;;
6269;SDS011;3168;51.684;6.954;2023-09-12T09:43:22;0.40;;;0.40;;
6269;SDS011;3168;51.684;6.954;2023-09-12T09:45:49;0.50;;;0.50;;
6269;SDS011;3168;51.684;6.954;2023-09-12T09:48:21;0.63;;;0.63;;
6269;SDS011;3168;51.684;6.954;2023-09-12T09:50:48;0.50;;;0.50;;
6269;SDS011;3168;51.684;6.954;2023-09-12T09:53:16;0.50;;;0.50;;
6269;SDS011;3168;51.684;6.954;2023-09-12T09:55:42;0.40;;;0.40;;
6269;SDS011;3168;51.684;6.954;2023-09-12T09:58:08;0.50;;;0.50;;
6269;SDS011;3168;51.684;6.954;2023-09-12T10:00:36;0.50;;;0.50;;
6269;SDS011;3168;51.684;6.954;2023-09-12T10:03:01;0.50;;;0.50;;
6269;SDS011;3168;51.684;6.954;2023-09-12T10:05:27;0.47;;;0.47;;
6269;SDS011;3168;51.684;6.954;2023-09-12T10:07:53;0.50;;;0.50;;
6269;SDS011;3168;51.684;6.954;2023-09-12T10:10:20;1.00;;;1.00;;
6269;SDS011;3168;51.684;6.954;2023-09-12T10:12:49;0.43;;;0.43;;
6269;SDS011;3168;51.684;6.954;2023-09-12T10:15:14;0.50;;;0.50;;
6269;SDS011;3168;51.684;6.954;2023-09-12T10:17:40;0.50;;;0.50;;
6269;SDS011;3168;51.684;6.954;2023-09-12T10:20:08;0.47;;;0.47;;
6269;SDS011;3168;51.684;6.954;2023-09-12T10:22:39;0.50;;;0.50;;
6269;SDS011;3168;51.684;6.954;2023-09-12T10:25:03;0.50;;;0.50;;
6269;SDS011;3168;51.684;6.954;2023-09-12T10:27:31;0.40;;;0.40;;
6269;SDS011;3168;51.684;6.954;2023-09-12T10:29:58;0.47;;;0.47;;
6269;SDS011;3168;51.684;6.954;2023-09-12T10:32:24;0.40;;;0.40;;
6269;SDS011;3168;51.684;6.954;2023-09-12T10:34:51;0.50;;;0.50;;
6269;SDS011;3168;51.684;6.954;2023-09-12T10:37:17;0.40;;;0.40;;
6269;SDS011;3168;51.684;6.954;2023-09-12T10:39:43;0.50;;;0.50;;
6269;SDS011;3168;51.684;6.954;2023-09-12T10:42:10;0.60;;;0.60;;
6269;SDS011;3168;51.684;6.954;2023-09-12T10:44:36;0.43;;;0.43;;
6269;SDS011;3168;51.684;6.954;2023-09-12T10:47:03;0.50;;;0.50;;
6269;SDS011;3168;51.684;6.954;2023-09-12T10:49:30;0.40;;;0.40;;
6269;SDS011;3168;51.684;6.954;2023-09-12T10:51:56;0.40;;;0.40;;
6269;SDS011;3168;51.684;6.954;2023-09-12T10:54:23;0.50;;;0.50;;
6269;SDS011;3168;51.684;6.954;2023-09-12T10:57:01;0.40;;;0.40;;
6269;SDS011;3168;51.684;6.954;2023-09-12T10:59:29;0.50;;;0.50;;
6269;SDS011;3168;51.684;6.954;2023-09-12T11:01:55;0.40;;;0.40;;
6269;SDS011;3168;51.684;6.954;2023-09-12T11:04:32;0.43;;;0.43;;
6269;SDS011;3168;51.684;6.954;2023-09-12T11:07:00;0.50;;;0.50;;
6269;SDS011;3168;51.684;6.954;2023-09-12T11:09:26;0.70;;;0.70;;
6269;SDS011;3168;51.684;6.954;2023-09-12T11:11:55;0.50;;;0.50;;
6269;SDS011;3168;51.684;6.954;2023-09-12T11:14:23;0.50;;;0.50;;
6269;SDS011;3168;51.684;6.954;2023-09-12T11:19:28;0.40;;;0.40;;
6269;SDS011;3168;51.684;6.954;2023-09-12T11:21:55;0.40;;;0.40;;
6269;SDS011;3168;51.684;6.954;2023-09-12T11:24:21;0.50;;;0.50;;
6269;SDS011;3168;51.684;6.954;2023-09-12T11:26:52;1.00;;;1.00;;
6269;SDS011;3168;51.684;6.954;2023-09-12T11:29:41;0.40;;;0.40;;
6269;SDS011;3168;51.684;6.954;2023-09-12T11:32:07;0.80;;;0.80;;
6269;SDS011;3168;51.684;6.954;2023-09-12T11:34:37;0.50;;;0.50;;
6269;SDS011;3168;51.684;6.954;2023-09-12T11:37:01;0.50;;;0.50;;
6269;SDS011;3168;51.684;6.954;2023-09-12T11:39:28;0.50;;;0.50;;
6269;SDS011;3168;51.684;6.954;2023-09-12T11:41:56;0.50;;;0.50;;
6269;SDS011;3168;51.684;6.954;2023-09-12T11:44:22;0.40;;;0.40;;
6269;SDS011;3168;51.684;6.954;2023-09-12T11:46:48;0.50;;;0.50;;
6269;SDS011;3168;51.684;6.954;2023-09-12T11:49:15;0.50;;;0.50;;
6269;SDS011;3168;51.684;6.954;2023-09-12T11:51:46;4.70;;;4.40;;
6269;SDS011;3168;51.684;6.954;2023-09-12T11:54:15;4.60;;;4.20;;
6269;SDS011;3168;51.684;6.954;2023-09-12T11:56:41;5.27;;;4.77;;
6269;SDS011;3168;51.684;6.954;2023-09-12T11:59:07;4.10;;;3.90;;
6269;SDS011;3168;51.684;6.954;2023-09-12T12:01:33;4.87;;;4.60;;
6269;SDS011;3168;51.684;6.954;2023-09-12T12:03:59;4.93;;;4.70;;
6269;SDS011;3168;51.684;6.954;2023-09-12T12:06:25;4.60;;;4.30;;
6269;SDS011;3168;51.684;6.954;2023-09-12T12:08:51;4.53;;;4.23;;
6269;SDS011;3168;51.684;6.954;2023-09-12T12:11:18;7.63;;;4.47;;
6269;SDS011;3168;51.684;6.954;2023-09-12T12:13:43;5.17;;;4.87;;
6269;SDS011;3168;51.684;6.954;2023-09-12T12:16:14;5.57;;;4.83;;
6269;SDS011;3168;51.684;6.954;2023-09-12T12:18:40;4.93;;;4.50;;
6269;SDS011;3168;51.684;6.954;2023-09-12T12:21:06;4.27;;;4.07;;
6269;SDS011;3168;51.684;6.954;2023-09-12T12:23:32;5.17;;;4.87;;
6269;SDS011;3168;51.684;6.954;2023-09-12T12:26:02;5.83;;;5.43;;
6269;SDS011;3168;51.684;6.954;2023-09-12T12:28:24;7.40;;;6.20;;
6269;SDS011;3168;51.684;6.954;2023-09-12T12:30:50;4.97;;;4.63;;
6269;SDS011;3168;51.684;6.954;2023-09-12T12:33:16;5.30;;;4.93;;
6269;SDS011;3168;51.684;6.954;2023-09-12T12:35:42;5.17;;;4.73;;
6269;SDS011;3168;51.684;6.954;2023-09-12T12:38:08;5.70;;;5.40;;
6269;SDS011;3168;51.684;6.954;2023-09-12T12:40:37;6.10;;;5.60;;
6269;SDS011;3168;51.684;6.954;2023-09-12T12:43:00;5.13;;;4.83;;
6269;SDS011;3168;51.684;6.954;2023-09-12T12:45:26;6.40;;;5.77;;
6269;SDS011;3168;51.684;6.954;2023-09-12T12:47:56;5.00;;;4.60;;
6269;SDS011;3168;51.684;6.954;2023-09-12T12:50:20;6.07;;;5.50;;
6269;SDS011;3168;51.684;6.954;2023-09-12T12:52:47;6.40;;;5.70;;
6269;SDS011;3168;51.684;6.954;2023-09-12T12:55:12;6.47;;;5.90;;
6269;SDS011;3168;51.684;6.954;2023-09-12T12:57:38;7.30;;;5.77;;
6269;SDS011;3168;51.684;6.954;2023-09-12T13:00:09;5.53;;;5.23;;
6269;SDS011;3168;51.684;6.954;2023-09-12T13:02:37;5.80;;;4.67;;
6269;SDS011;3168;51.684;6.954;2023-09-12T13:05:03;5.90;;;5.27;;
6269;SDS011;3168;51.684;6.954;2023-09-12T13:07:29;4.40;;;4.20;;
6269;SDS011;3168;51.684;6.954;2023-09-12T13:09:56;5.07;;;4.57;;
6269;SDS011;3168;51.684;6.954;2023-09-12T13:12:22;5.00;;;4.60;;
6269;SDS011;3168;51.684;6.954;2023-09-12T13:14:48;4.50;;;4.20;;
6269;SDS011;3168;51.684;6.954;2023-09-12T13:17:14;4.70;;;4.30;;
6269;SDS011;3168;51.684;6.954;2023-09-12T13:19:40;4.83;;;4.20;;
6269;SDS011;3168;51.684;6.954;2023-09-12T13:22:06;6.20;;;5.70;;
6269;SDS011;3168;51.684;6.954;2023-09-12T13:24:32;4.23;;;4.03;;
6269;SDS011;3168;51.684;6.954;2023-09-12T13:26:58;3.77;;;3.53;;
6269;SDS011;3168;51.684;6.954;2023-09-12T13:29:24;4.10;;;3.87;;
6269;SDS011;3168;51.684;6.954;2023-09-12T13:31:51;5.20;;;4.70;;
6269;SDS011;3168;51.684;6.954;2023-09-12T13:34:17;4.13;;;3.93;;
6269;SDS011;3168;51.684;6.954;2023-09-12T13:36:43;3.77;;;3.67;;
6269;SDS011;3168;51.684;6.954;2023-09-12T13:39:09;4.07;;;3.77;;
6269;SDS011;3168;51.684;6.954;2023-09-12T13:41:35;4.23;;;4.00;;
6269;SDS011;3168;51.684;6.954;2023-09-12T13:44:01;3.53;;;3.33;;
6269;SDS011;3168;51.684;6.954;2023-09-12T13:46:27;4.23;;;3.93;;
6269;SDS011;3168;51.684;6.954;2023-09-12T13:48:53;3.33;;;3.23;;
6269;SDS011;3168;51.684;6.954;2023-09-12T13:51:19;4.50;;;4.30;;
6269;SDS011;3168;51.684;6.954;2023-09-12T13:53:45;3.10;;;3.00;;
6269;SDS011;3168;51.684;6.954;2023-09-12T13:56:11;6.47;;;4.07;;
6269;SDS011;3168;51.684;6.954;2023-09-12T13:58:36;4.17;;;3.97;;
6269;SDS011;3168;51.684;6.954;2023-09-12T14:01:02;3.93;;;3.77;;
6269;SDS011;3168;51.684;6.954;2023-09-12T14:03:28;4.30;;;4.10;;
6269;SDS011;3168;51.684;6.954;2023-09-12T14:05:54;3.90;;;3.80;;
6269;SDS011;3168;51.684;6.954;2023-09-12T14:08:20;4.53;;;4.20;;
6269;SDS011;3168;51.684;6.954;2023-09-12T14:10:46;4.07;;;3.67;;
6269;SDS011;3168;51.684;6.954;2023-09-12T14:13:12;3.10;;;3.00;;
6269;SDS011;3168;51.684;6.954;2023-09-12T14:15:38;5.03;;;4.50;;
6269;SDS011;3168;51.684;6.954;2023-09-12T14:18:04;4.30;;;4.03;;
6269;SDS011;3168;51.684;6.954;2023-09-12T14:20:31;4.60;;;4.40;;
6269;SDS011;3168;51.684;6.954;2023-09-12T14:22:57;5.67;;;4.57;;
6269;SDS011;3168;51.684;6.954;2023-09-12T14:25:23;5.07;;;4.67;;
6269;SDS011;3168;51.684;6.954;2023-09-12T14:27:49;10.87;;;6.47;;
6269;SDS011;3168;51.684;6.954;2023-09-12T14:30:15;5.83;;;5.50;;
6269;SDS011;3168;51.684;6.954;2023-09-12T14:32:41;5.37;;;5.00;;
6269;SDS011;3168;51.684;6.954;2023-09-12T14:35:07;5.63;;;5.07;;
6269;SDS011;3168;51.684;6.954;2023-09-12T14:37:33;4.73;;;4.43;;
6269;SDS011;3168;51.684;6.954;2023-09-12T14:40:02;5.77;;;5.20;;
6269;SDS011;3168;51.684;6.954;2023-09-12T14:42:27;4.63;;;4.33;;
6269;SDS011;3168;51.684;6.954;2023-09-12T14:44:53;4.33;;;4.13;;
6269;SDS011;3168;51.684;6.954;2023-09-12T14:47:19;4.80;;;4.50;;
6269;SDS011;3168;51.684;6.954;2023-09-12T14:49:45;4.90;;;4.43;;
6269;SDS011;3168;51.684;6.954;2023-09-12T14:52:11;4.83;;;4.43;;
6269;SDS011;3168;51.684;6.954;2023-09-12T14:54:37;3.50;;;3.40;;
6269;SDS011;3168;51.684;6.954;2023-09-12T14:57:03;3.90;;;3.70;;
6269;SDS011;3168;51.684;6.954;2023-09-12T14:59:29;6.37;;;4.67;;
6269;SDS011;3168;51.684;6.954;2023-09-12T15:01:55;4.57;;;4.30;;
6269;SDS011;3168;51.684;6.954;2023-09-12T15:04:22;3.80;;;3.50;;
6269;SDS011;3168;51.684;6.954;2023-09-12T15:06:48;3.70;;;3.60;;
6269;SDS011;3168;51.684;6.954;2023-09-12T15:09:14;3.27;;;3.07;;
6269;SDS011;3168;51.684;6.954;2023-09-12T15:11:39;4.27;;;3.87;;
6269;SDS011;3168;51.684;6.954;2023-09-12T15:14:05;3.83;;;3.60;;
6269;SDS011;3168;51.684;6.954;2023-09-12T15:16:31;5.33;;;3.97;;